sensor_id;sensor_type;location;lat;lon;timestamp;P1;durP1;ratioP1;P2;durP2;ratioP2
5416;SDS011;2731;50.754;12.990;2022-09-03T00:01:28;3.20;;;1.45;;
5416;SDS011;2731;50.754;12.990;2022-09-03T00:04:02;4.72;;;1.60;;
5416;SDS011;2731;50.754;12.990;2022-09-03T00:06:38;1.90;;;1.30;;
5416;SDS011;2731;50.754;12.990;2022-09-03T00:09:12;3.33;;;1.75;;
5416;SDS011;2731;50.754;12.990;2022-09-03T00:11:54;1.73;;;1.23;;
5416;SDS011;2731;50.754;12.990;2022-09-03T00:14:27;2.67;;;1.67;;
5416;SDS011;2731;50.754;12.990;2022-09-03T00:17:04;1.48;;;1.33;;
5416;SDS011;2731;50.754;12.990;2022-09-03T00:19:36;2.25;;;1.52;;
5416;SDS011;2731;50.754;12.990;2022-09-03T00:22:32;2.05;;;1.50;;
5416;SDS011;2731;50.754;12.990;2022-09-03T00:24:57;1.63;;;1.38;;
5416;SDS011;2731;50.754;12.990;2022-09-03T00:27:28;2.33;;;1.58;;
5416;SDS011;2731;50.754;12.990;2022-09-03T00:29:58;2.17;;;1.42;;
5416;SDS011;2731;50.754;12.990;2022-09-03T00:35:05;1.67;;;1.30;;
5416;SDS011;2731;50.754;12.990;2022-09-03T00:37:36;3.05;;;1.65;;
5416;SDS011;2731;50.754;12.990;2022-09-03T00:40:04;5.35;;;1.85;;
5416;SDS011;2731;50.754;12.990;2022-09-03T01:07:11;2.97;;;1.73;;
5416;SDS011;2731;50.754;12.990;2022-09-03T01:18:51;2.42;;;1.30;;
5416;SDS011;2731;50.754;12.990;2022-09-03T01:21:43;2.22;;;1.45;;
5416;SDS011;2731;50.754;12.990;2022-09-03T01:30:17;2.03;;;1.30;;
5416;SDS011;2731;50.754;12.990;2022-09-03T01:32:53;4.05;;;1.63;;
5416;SDS011;2731;50.754;12.990;2022-09-03T01:35:36;1.77;;;1.38;;
5416;SDS011;2731;50.754;12.990;2022-09-03T01:44:41;3.47;;;1.95;;
5416;SDS011;2731;50.754;12.990;2022-09-03T01:50:32;5.03;;;1.98;;
5416;SDS011;2731;50.754;12.990;2022-09-03T01:56:23;1.73;;;1.30;;
5416;SDS011;2731;50.754;12.990;2022-09-03T01:59:27;2.42;;;1.58;;
5416;SDS011;2731;50.754;12.990;2022-09-03T02:02:03;1.98;;;1.23;;
5416;SDS011;2731;50.754;12.990;2022-09-03T02:04:54;1.90;;;1.50;;
5416;SDS011;2731;50.754;12.990;2022-09-03T02:07:33;3.60;;;1.60;;
5416;SDS011;2731;50.754;12.990;2022-09-03T02:10:02;2.92;;;1.50;;
5416;SDS011;2731;50.754;12.990;2022-09-03T02:12:31;2.75;;;1.27;;
5416;SDS011;2731;50.754;12.990;2022-09-03T02:14:59;2.72;;;1.60;;
5416;SDS011;2731;50.754;12.990;2022-09-03T02:17:30;1.52;;;1.38;;
5416;SDS011;2731;50.754;12.990;2022-09-03T02:19:57;1.98;;;1.50;;
5416;SDS011;2731;50.754;12.990;2022-09-03T02:22:23;2.60;;;1.90;;
5416;SDS011;2731;50.754;12.990;2022-09-03T02:24:50;3.22;;;1.70;;
5416;SDS011;2731;50.754;12.990;2022-09-03T02:27:25;2.30;;;1.65;;
5416;SDS011;2731;50.754;12.990;2022-09-03T02:29:52;2.75;;;1.65;;
5416;SDS011;2731;50.754;12.990;2022-09-03T02:32:26;1.83;;;1.27;;
5416;SDS011;2731;50.754;12.990;2022-09-03T02:34:53;2.83;;;1.42;;
5416;SDS011;2731;50.754;12.990;2022-09-03T02:37:18;3.55;;;1.25;;
5416;SDS011;2731;50.754;12.990;2022-09-03T02:39:45;3.28;;;1.88;;
5416;SDS011;2731;50.754;12.990;2022-09-03T02:42:12;4.80;;;1.67;;
5416;SDS011;2731;50.754;12.990;2022-09-03T02:44:56;2.50;;;1.63;;
5416;SDS011;2731;50.754;12.990;2022-09-03T02:48:04;3.00;;;1.77;;
5416;SDS011;2731;50.754;12.990;2022-09-03T02:50:31;1.65;;;1.38;;
5416;SDS011;2731;50.754;12.990;2022-09-03T02:53:00;3.90;;;1.77;;
5416;SDS011;2731;50.754;12.990;2022-09-03T02:55:26;2.58;;;1.90;;
5416;SDS011;2731;50.754;12.990;2022-09-03T02:57:53;3.70;;;2.17;;
5416;SDS011;2731;50.754;12.990;2022-09-03T03:00:22;3.20;;;1.50;;
5416;SDS011;2731;50.754;12.990;2022-09-03T03:02:49;3.65;;;1.45;;
5416;SDS011;2731;50.754;12.990;2022-09-03T03:05:19;1.98;;;1.20;;
5416;SDS011;2731;50.754;12.990;2022-09-03T03:07:50;2.60;;;1.52;;
5416;SDS011;2731;50.754;12.990;2022-09-03T03:10:17;2.88;;;1.80;;
5416;SDS011;2731;50.754;12.990;2022-09-03T03:12:42;8.13;;;1.38;;
5416;SDS011;2731;50.754;12.990;2022-09-03T03:15:11;2.20;;;1.48;;
5416;SDS011;2731;50.754;12.990;2022-09-03T03:17:37;2.05;;;1.70;;
5416;SDS011;2731;50.754;12.990;2022-09-03T03:20:07;4.20;;;1.70;;
5416;SDS011;2731;50.754;12.990;2022-09-03T03:22:33;2.90;;;1.80;;
5416;SDS011;2731;50.754;12.990;2022-09-03T03:24:59;3.40;;;1.85;;
5416;SDS011;2731;50.754;12.990;2022-09-03T03:27:26;3.13;;;1.70;;
5416;SDS011;2731;50.754;12.990;2022-09-03T03:29:51;3.55;;;1.50;;
5416;SDS011;2731;50.754;12.990;2022-09-03T03:32:21;1.80;;;1.40;;
5416;SDS011;2731;50.754;12.990;2022-09-03T03:34:47;2.30;;;1.50;;
5416;SDS011;2731;50.754;12.990;2022-09-03T03:37:15;3.75;;;1.58;;
5416;SDS011;2731;50.754;12.990;2022-09-03T03:39:43;1.63;;;1.38;;
5416;SDS011;2731;50.754;12.990;2022-09-03T03:42:09;1.75;;;1.40;;
5416;SDS011;2731;50.754;12.990;2022-09-03T03:44:36;2.53;;;1.70;;
5416;SDS011;2731;50.754;12.990;2022-09-03T03:47:01;1.92;;;1.38;;
5416;SDS011;2731;50.754;12.990;2022-09-03T03:49:29;2.05;;;1.60;;
5416;SDS011;2731;50.754;12.990;2022-09-03T03:51:55;2.33;;;1.52;;
5416;SDS011;2731;50.754;12.990;2022-09-03T03:54:24;2.95;;;1.45;;
5416;SDS011;2731;50.754;12.990;2022-09-03T03:56:49;1.58;;;1.45;;
5416;SDS011;2731;50.754;12.990;2022-09-03T03:59:16;4.07;;;1.52;;
5416;SDS011;2731;50.754;12.990;2022-09-03T04:01:41;2.97;;;1.70;;
5416;SDS011;2731;50.754;12.990;2022-09-03T04:04:09;1.98;;;1.30;;
5416;SDS011;2731;50.754;12.990;2022-09-03T04:06:36;2.40;;;1.20;;
5416;SDS011;2731;50.754;12.990;2022-09-03T04:09:01;2.45;;;1.38;;
5416;SDS011;2731;50.754;12.990;2022-09-03T04:11:29;2.38;;;1.45;;
5416;SDS011;2731;50.754;12.990;2022-09-03T04:13:54;1.80;;;1.70;;
5416;SDS011;2731;50.754;12.990;2022-09-03T04:16:26;2.72;;;1.42;;
5416;SDS011;2731;50.754;12.990;2022-09-03T04:18:54;4.78;;;1.58;;
5416;SDS011;2731;50.754;12.990;2022-09-03T04:21:21;3.65;;;1.30;;
5416;SDS011;2731;50.754;12.990;2022-09-03T04:23:49;4.85;;;1.88;;
5416;SDS011;2731;50.754;12.990;2022-09-03T04:26:20;4.75;;;2.17;;
5416;SDS011;2731;50.754;12.990;2022-09-03T04:28:47;1.80;;;1.20;;
5416;SDS011;2731;50.754;12.990;2022-09-03T04:31:15;5.60;;;1.92;;
5416;SDS011;2731;50.754;12.990;2022-09-03T04:33:41;2.80;;;1.45;;
5416;SDS011;2731;50.754;12.990;2022-09-03T04:38:40;6.10;;;2.00;;
5416;SDS011;2731;50.754;12.990;2022-09-03T04:41:07;1.98;;;1.50;;
5416;SDS011;2731;50.754;12.990;2022-09-03T04:43:37;2.10;;;1.40;;
5416;SDS011;2731;50.754;12.990;2022-09-03T04:46:07;2.97;;;1.75;;
5416;SDS011;2731;50.754;12.990;2022-09-03T04:48:36;1.90;;;1.38;;
5416;SDS011;2731;50.754;12.990;2022-09-03T04:51:03;2.15;;;1.58;;
5416;SDS011;2731;50.754;12.990;2022-09-03T04:53:44;2.45;;;1.55;;
5416;SDS011;2731;50.754;12.990;2022-09-03T04:56:15;5.65;;;1.90;;
5416;SDS011;2731;50.754;12.990;2022-09-03T04:58:48;4.57;;;1.60;;
5416;SDS011;2731;50.754;12.990;2022-09-03T05:01:26;2.83;;;1.63;;
5416;SDS011;2731;50.754;12.990;2022-09-03T05:03:54;1.88;;;1.50;;
5416;SDS011;2731;50.754;12.990;2022-09-03T05:06:20;6.03;;;1.98;;
5416;SDS011;2731;50.754;12.990;2022-09-03T05:08:50;1.85;;;1.45;;
5416;SDS011;2731;50.754;12.990;2022-09-03T05:11:20;3.22;;;1.42;;
5416;SDS011;2731;50.754;12.990;2022-09-03T05:13:47;3.83;;;1.20;;
5416;SDS011;2731;50.754;12.990;2022-09-03T05:16:16;3.38;;;1.77;;
5416;SDS011;2731;50.754;12.990;2022-09-03T05:18:44;1.88;;;1.30;;
5416;SDS011;2731;50.754;12.990;2022-09-03T05:21:11;3.22;;;1.25;;
5416;SDS011;2731;50.754;12.990;2022-09-03T05:23:43;3.35;;;1.83;;
5416;SDS011;2731;50.754;12.990;2022-09-03T05:26:11;2.22;;;1.17;;
5416;SDS011;2731;50.754;12.990;2022-09-03T05:28:39;2.42;;;1.33;;
5416;SDS011;2731;50.754;12.990;2022-09-03T05:31:06;2.00;;;1.30;;
5416;SDS011;2731;50.754;12.990;2022-09-03T05:33:36;2.78;;;1.55;;
5416;SDS011;2731;50.754;12.990;2022-09-03T05:36:13;5.43;;;1.75;;
5416;SDS011;2731;50.754;12.990;2022-09-03T05:38:41;2.15;;;1.50;;
5416;SDS011;2731;50.754;12.990;2022-09-03T05:41:09;1.38;;;1.10;;
5416;SDS011;2731;50.754;12.990;2022-09-03T05:43:38;2.17;;;1.60;;
5416;SDS011;2731;50.754;12.990;2022-09-03T05:46:12;2.33;;;1.25;;
5416;SDS011;2731;50.754;12.990;2022-09-03T05:48:45;2.05;;;1.40;;
5416;SDS011;2731;50.754;12.990;2022-09-03T05:51:15;2.03;;;1.48;;
5416;SDS011;2731;50.754;12.990;2022-09-03T05:53:44;2.10;;;1.52;;
5416;SDS011;2731;50.754;12.990;2022-09-03T05:56:15;4.13;;;1.63;;
5416;SDS011;2731;50.754;12.990;2022-09-03T05:58:52;1.85;;;1.38;;
5416;SDS011;2731;50.754;12.990;2022-09-03T06:01:21;2.50;;;1.48;;
5416;SDS011;2731;50.754;12.990;2022-09-03T06:06:24;3.63;;;1.30;;
5416;SDS011;2731;50.754;12.990;2022-09-03T06:08:54;2.67;;;1.35;;
5416;SDS011;2731;50.754;12.990;2022-09-03T06:11:28;3.53;;;1.45;;
5416;SDS011;2731;50.754;12.990;2022-09-03T06:13:56;3.15;;;1.20;;
5416;SDS011;2731;50.754;12.990;2022-09-03T06:16:25;2.13;;;1.50;;
5416;SDS011;2731;50.754;12.990;2022-09-03T06:18:53;1.38;;;1.15;;
5416;SDS011;2731;50.754;12.990;2022-09-03T06:21:21;4.35;;;1.70;;
5416;SDS011;2731;50.754;12.990;2022-09-03T06:23:49;2.25;;;1.50;;
5416;SDS011;2731;50.754;12.990;2022-09-03T06:26:17;2.03;;;1.40;;
5416;SDS011;2731;50.754;12.990;2022-09-03T06:28:44;2.35;;;1.48;;
5416;SDS011;2731;50.754;12.990;2022-09-03T06:31:10;1.75;;;1.33;;
5416;SDS011;2731;50.754;12.990;2022-09-03T06:33:38;3.40;;;1.50;;
5416;SDS011;2731;50.754;12.990;2022-09-03T06:36:08;4.20;;;1.60;;
5416;SDS011;2731;50.754;12.990;2022-09-03T06:38:36;2.85;;;1.50;;
5416;SDS011;2731;50.754;12.990;2022-09-03T06:41:03;2.28;;;1.20;;
5416;SDS011;2731;50.754;12.990;2022-09-03T06:43:37;3.45;;;1.60;;
5416;SDS011;2731;50.754;12.990;2022-09-03T06:46:09;2.15;;;1.35;;
5416;SDS011;2731;50.754;12.990;2022-09-03T06:48:38;3.08;;;1.20;;
5416;SDS011;2731;50.754;12.990;2022-09-03T06:51:11;1.90;;;1.30;;
5416;SDS011;2731;50.754;12.990;2022-09-03T06:53:38;3.08;;;0.88;;
5416;SDS011;2731;50.754;12.990;2022-09-03T06:56:05;2.72;;;1.30;;
5416;SDS011;2731;50.754;12.990;2022-09-03T06:58:37;1.67;;;1.38;;
5416;SDS011;2731;50.754;12.990;2022-09-03T07:03:41;2.45;;;1.00;;
5416;SDS011;2731;50.754;12.990;2022-09-03T07:06:15;3.83;;;1.50;;
5416;SDS011;2731;50.754;12.990;2022-09-03T07:08:44;2.75;;;1.52;;
5416;SDS011;2731;50.754;12.990;2022-09-03T07:11:16;1.55;;;0.95;;
5416;SDS011;2731;50.754;12.990;2022-09-03T07:13:55;2.80;;;1.48;;
5416;SDS011;2731;50.754;12.990;2022-09-03T07:16:33;2.13;;;1.17;;
5416;SDS011;2731;50.754;12.990;2022-09-03T07:19:02;2.78;;;1.10;;
5416;SDS011;2731;50.754;12.990;2022-09-03T07:21:30;1.30;;;1.17;;
5416;SDS011;2731;50.754;12.990;2022-09-03T07:23:58;3.90;;;1.75;;
5416;SDS011;2731;50.754;12.990;2022-09-03T07:26:25;10.20;;;1.80;;
5416;SDS011;2731;50.754;12.990;2022-09-03T07:28:55;2.80;;;1.70;;
5416;SDS011;2731;50.754;12.990;2022-09-03T07:31:22;2.90;;;1.17;;
5416;SDS011;2731;50.754;12.990;2022-09-03T07:33:55;2.42;;;1.20;;
5416;SDS011;2731;50.754;12.990;2022-09-03T07:36:22;2.53;;;1.55;;
5416;SDS011;2731;50.754;12.990;2022-09-03T07:38:49;1.08;;;0.88;;
5416;SDS011;2731;50.754;12.990;2022-09-03T07:41:20;3.60;;;1.50;;
5416;SDS011;2731;50.754;12.990;2022-09-03T07:43:49;2.53;;;1.08;;
5416;SDS011;2731;50.754;12.990;2022-09-03T07:46:16;3.95;;;1.52;;
5416;SDS011;2731;50.754;12.990;2022-09-03T07:49:04;1.30;;;0.80;;
5416;SDS011;2731;50.754;12.990;2022-09-03T07:51:31;2.00;;;1.30;;
5416;SDS011;2731;50.754;12.990;2022-09-03T07:54:02;3.05;;;1.10;;
5416;SDS011;2731;50.754;12.990;2022-09-03T07:56:32;2.17;;;1.30;;
5416;SDS011;2731;50.754;12.990;2022-09-03T07:59:02;2.47;;;1.40;;
5416;SDS011;2731;50.754;12.990;2022-09-03T08:01:30;2.00;;;1.33;;
5416;SDS011;2731;50.754;12.990;2022-09-03T08:03:57;4.15;;;1.67;;
5416;SDS011;2731;50.754;12.990;2022-09-03T08:06:25;2.15;;;1.30;;
5416;SDS011;2731;50.754;12.990;2022-09-03T08:08:59;2.13;;;1.20;;
5416;SDS011;2731;50.754;12.990;2022-09-03T08:11:28;2.53;;;1.20;;
5416;SDS011;2731;50.754;12.990;2022-09-03T08:13:59;1.42;;;1.00;;
5416;SDS011;2731;50.754;12.990;2022-09-03T08:16:31;2.72;;;1.30;;
5416;SDS011;2731;50.754;12.990;2022-09-03T08:18:59;2.28;;;1.23;;
5416;SDS011;2731;50.754;12.990;2022-09-03T08:21:27;2.08;;;1.20;;
5416;SDS011;2731;50.754;12.990;2022-09-03T08:23:55;2.10;;;1.08;;
5416;SDS011;2731;50.754;12.990;2022-09-03T08:26:33;2.85;;;1.33;;
5416;SDS011;2731;50.754;12.990;2022-09-03T08:29:01;1.52;;;1.10;;
5416;SDS011;2731;50.754;12.990;2022-09-03T08:31:28;1.35;;;1.10;;
5416;SDS011;2731;50.754;12.990;2022-09-03T08:33:54;2.10;;;1.10;;
5416;SDS011;2731;50.754;12.990;2022-09-03T08:36:31;2.65;;;1.27;;
5416;SDS011;2731;50.754;12.990;2022-09-03T08:39:03;2.35;;;1.25;;
5416;SDS011;2731;50.754;12.990;2022-09-03T08:55:48;1.33;;;0.95;;
5416;SDS011;2731;50.754;12.990;2022-09-03T08:58:35;1.13;;;1.02;;
5416;SDS011;2731;50.754;12.990;2022-09-03T09:01:13;2.75;;;1.20;;
5416;SDS011;2731;50.754;12.990;2022-09-03T09:06:49;1.42;;;1.00;;
5416;SDS011;2731;50.754;12.990;2022-09-03T09:09:29;2.47;;;1.25;;
5416;SDS011;2731;50.754;12.990;2022-09-03T09:18:29;3.33;;;1.23;;
5416;SDS011;2731;50.754;12.990;2022-09-03T09:21:07;1.52;;;0.90;;
5416;SDS011;2731;50.754;12.990;2022-09-03T09:23:48;3.35;;;0.98;;
5416;SDS011;2731;50.754;12.990;2022-09-03T09:26:19;1.42;;;1.10;;
5416;SDS011;2731;50.754;12.990;2022-09-03T09:28:51;1.48;;;0.93;;
5416;SDS011;2731;50.754;12.990;2022-09-03T09:31:31;8.57;;;1.58;;
5416;SDS011;2731;50.754;12.990;2022-09-03T09:34:08;3.35;;;1.25;;
5416;SDS011;2731;50.754;12.990;2022-09-03T09:36:43;1.10;;;1.00;;
5416;SDS011;2731;50.754;12.990;2022-09-03T09:39:13;0.93;;;0.80;;
5416;SDS011;2731;50.754;12.990;2022-09-03T09:41:41;1.90;;;0.95;;
5416;SDS011;2731;50.754;12.990;2022-09-03T09:44:16;2.13;;;1.15;;
5416;SDS011;2731;50.754;12.990;2022-09-03T09:46:44;2.40;;;1.10;;
5416;SDS011;2731;50.754;12.990;2022-09-03T09:49:30;2.00;;;0.90;;
5416;SDS011;2731;50.754;12.990;2022-09-03T09:52:01;2.55;;;1.00;;
5416;SDS011;2731;50.754;12.990;2022-09-03T09:54:33;1.67;;;1.10;;
5416;SDS011;2731;50.754;12.990;2022-09-03T09:57:02;1.63;;;0.93;;
5416;SDS011;2731;50.754;12.990;2022-09-03T09:59:30;1.25;;;0.90;;
5416;SDS011;2731;50.754;12.990;2022-09-03T10:02:46;1.15;;;0.75;;
5416;SDS011;2731;50.754;12.990;2022-09-03T10:05:19;1.63;;;1.05;;
5416;SDS011;2731;50.754;12.990;2022-09-03T10:10:24;1.17;;;0.80;;
5416;SDS011;2731;50.754;12.990;2022-09-03T10:13:12;1.80;;;1.17;;
5416;SDS011;2731;50.754;12.990;2022-09-03T10:16:02;1.30;;;0.93;;
5416;SDS011;2731;50.754;12.990;2022-09-03T10:18:56;1.10;;;0.87;;
5416;SDS011;2731;50.754;12.990;2022-09-03T10:21:46;2.35;;;1.10;;
5416;SDS011;2731;50.754;12.990;2022-09-03T10:27:18;5.93;;;2.10;;
5416;SDS011;2731;50.754;12.990;2022-09-03T10:29:46;3.88;;;1.70;;
5416;SDS011;2731;50.754;12.990;2022-09-03T10:34:53;4.65;;;2.08;;
5416;SDS011;2731;50.754;12.990;2022-09-03T10:46:44;1.88;;;1.25;;
5416;SDS011;2731;50.754;12.990;2022-09-03T11:00:36;5.78;;;1.40;;
5416;SDS011;2731;50.754;12.990;2022-09-03T11:08:57;2.30;;;1.10;;
5416;SDS011;2731;50.754;12.990;2022-09-03T11:11:30;3.55;;;1.27;;
5416;SDS011;2731;50.754;12.990;2022-09-03T11:16:38;2.45;;;1.10;;
5416;SDS011;2731;50.754;12.990;2022-09-03T11:19:17;2.17;;;1.20;;
5416;SDS011;2731;50.754;12.990;2022-09-03T11:21:44;1.77;;;1.00;;
5416;SDS011;2731;50.754;12.990;2022-09-03T11:24:13;1.50;;;1.15;;
5416;SDS011;2731;50.754;12.990;2022-09-03T11:26:43;2.28;;;1.17;;
5416;SDS011;2731;50.754;12.990;2022-09-03T11:29:20;2.40;;;1.15;;
5416;SDS011;2731;50.754;12.990;2022-09-03T11:32:08;5.45;;;2.58;;
5416;SDS011;2731;50.754;12.990;2022-09-03T11:34:49;5.40;;;2.72;;
5416;SDS011;2731;50.754;12.990;2022-09-03T11:37:28;2.33;;;1.60;;
5416;SDS011;2731;50.754;12.990;2022-09-03T11:42:46;3.03;;;1.13;;
5416;SDS011;2731;50.754;12.990;2022-09-03T11:47:54;3.58;;;1.20;;
5416;SDS011;2731;50.754;12.990;2022-09-03T11:50:24;2.13;;;1.25;;
5416;SDS011;2731;50.754;12.990;2022-09-03T11:55:54;1.60;;;0.77;;
5416;SDS011;2731;50.754;12.990;2022-09-03T11:58:40;2.22;;;1.27;;
5416;SDS011;2731;50.754;12.990;2022-09-03T12:01:14;2.20;;;1.27;;
5416;SDS011;2731;50.754;12.990;2022-09-03T12:03:46;2.37;;;1.00;;
5416;SDS011;2731;50.754;12.990;2022-09-03T12:09:16;1.75;;;1.08;;
5416;SDS011;2731;50.754;12.990;2022-09-03T12:14:39;2.08;;;1.20;;
5416;SDS011;2731;50.754;12.990;2022-09-03T12:18:01;2.55;;;1.33;;
5416;SDS011;2731;50.754;12.990;2022-09-03T12:20:39;1.20;;;0.90;;
5416;SDS011;2731;50.754;12.990;2022-09-03T12:23:06;3.17;;;0.85;;
5416;SDS011;2731;50.754;12.990;2022-09-03T12:25:32;1.38;;;1.10;;
5416;SDS011;2731;50.754;12.990;2022-09-03T12:28:00;0.80;;;0.80;;
5416;SDS011;2731;50.754;12.990;2022-09-03T12:30:29;2.50;;;0.98;;
5416;SDS011;2731;50.754;12.990;2022-09-03T12:33:06;1.77;;;1.00;;
5416;SDS011;2731;50.754;12.990;2022-09-03T12:35:38;1.75;;;1.38;;
5416;SDS011;2731;50.754;12.990;2022-09-03T12:38:03;2.25;;;1.10;;
5416;SDS011;2731;50.754;12.990;2022-09-03T12:40:29;1.65;;;1.08;;
5416;SDS011;2731;50.754;12.990;2022-09-03T12:43:10;1.33;;;0.90;;
5416;SDS011;2731;50.754;12.990;2022-09-03T12:45:42;1.23;;;0.90;;
5416;SDS011;2731;50.754;12.990;2022-09-03T12:48:15;1.30;;;1.10;;
5416;SDS011;2731;50.754;12.990;2022-09-03T12:53:10;2.55;;;1.10;;
5416;SDS011;2731;50.754;12.990;2022-09-03T12:55:42;1.40;;;0.82;;
5416;SDS011;2731;50.754;12.990;2022-09-03T13:00:51;1.23;;;0.80;;
5416;SDS011;2731;50.754;12.990;2022-09-03T13:03:31;0.93;;;0.80;;
5416;SDS011;2731;50.754;12.990;2022-09-03T13:06:08;1.35;;;0.80;;
5416;SDS011;2731;50.754;12.990;2022-09-03T13:08:39;1.52;;;1.15;;
5416;SDS011;2731;50.754;12.990;2022-09-03T13:11:09;1.27;;;0.88;;
5416;SDS011;2731;50.754;12.990;2022-09-03T13:13:47;1.67;;;1.00;;
5416;SDS011;2731;50.754;12.990;2022-09-03T13:19:19;2.17;;;1.15;;
5416;SDS011;2731;50.754;12.990;2022-09-03T13:22:16;2.38;;;1.05;;
5416;SDS011;2731;50.754;12.990;2022-09-03T13:30:28;1.88;;;1.10;;
5416;SDS011;2731;50.754;12.990;2022-09-03T13:33:15;1.95;;;0.80;;
5416;SDS011;2731;50.754;12.990;2022-09-03T13:35:46;1.23;;;0.95;;
5416;SDS011;2731;50.754;12.990;2022-09-03T13:38:26;2.13;;;1.00;;
5416;SDS011;2731;50.754;12.990;2022-09-03T13:41:16;0.98;;;0.77;;
5416;SDS011;2731;50.754;12.990;2022-09-03T13:43:51;1.45;;;0.90;;
5416;SDS011;2731;50.754;12.990;2022-09-03T13:49:26;1.50;;;1.08;;
5416;SDS011;2731;50.754;12.990;2022-09-03T13:52:44;1.08;;;0.75;;
5416;SDS011;2731;50.754;12.990;2022-09-03T13:55:25;1.23;;;0.80;;
5416;SDS011;2731;50.754;12.990;2022-09-03T14:01:26;2.65;;;1.08;;
5416;SDS011;2731;50.754;12.990;2022-09-03T14:04:21;1.52;;;0.98;;
5416;SDS011;2731;50.754;12.990;2022-09-03T14:09:29;2.60;;;0.80;;
5416;SDS011;2731;50.754;12.990;2022-09-03T14:20:25;1.67;;;0.98;;
5416;SDS011;2731;50.754;12.990;2022-09-03T14:26:21;1.00;;;0.80;;
5416;SDS011;2731;50.754;12.990;2022-09-03T14:29:01;5.10;;;1.45;;
5416;SDS011;2731;50.754;12.990;2022-09-03T14:51:30;3.63;;;1.10;;
5416;SDS011;2731;50.754;12.990;2022-09-03T14:57:17;1.60;;;1.08;;
5416;SDS011;2731;50.754;12.990;2022-09-03T15:00:49;1.73;;;0.90;;
5416;SDS011;2731;50.754;12.990;2022-09-03T15:03:19;1.27;;;0.80;;
5416;SDS011;2731;50.754;12.990;2022-09-03T15:06:01;1.42;;;1.00;;
5416;SDS011;2731;50.754;12.990;2022-09-03T15:11:25;1.48;;;1.20;;
5416;SDS011;2731;50.754;12.990;2022-09-03T15:14:12;2.42;;;1.40;;
5416;SDS011;2731;50.754;12.990;2022-09-03T15:16:46;1.45;;;1.05;;
5416;SDS011;2731;50.754;12.990;2022-09-03T15:28:23;1.70;;;1.27;;
5416;SDS011;2731;50.754;12.990;2022-09-03T15:36:59;1.48;;;1.30;;
5416;SDS011;2731;50.754;12.990;2022-09-03T15:39:38;1.50;;;1.05;;
5416;SDS011;2731;50.754;12.990;2022-09-03T15:42:29;1.23;;;0.98;;
5416;SDS011;2731;50.754;12.990;2022-09-03T15:47:55;0.90;;;0.80;;
5416;SDS011;2731;50.754;12.990;2022-09-03T15:53:55;1.92;;;1.13;;
5416;SDS011;2731;50.754;12.990;2022-09-03T15:57:16;1.63;;;0.85;;
5416;SDS011;2731;50.754;12.990;2022-09-03T15:59:54;1.38;;;0.90;;
5416;SDS011;2731;50.754;12.990;2022-09-03T16:05:20;2.22;;;0.90;;
5416;SDS011;2731;50.754;12.990;2022-09-03T16:08:09;2.35;;;0.95;;
5416;SDS011;2731;50.754;12.990;2022-09-03T16:16:44;3.55;;;1.17;;
5416;SDS011;2731;50.754;12.990;2022-09-03T16:19:35;3.10;;;1.60;;
5416;SDS011;2731;50.754;12.990;2022-09-03T16:22:17;2.92;;;1.30;;
5416;SDS011;2731;50.754;12.990;2022-09-03T16:25:14;1.30;;;1.20;;
5416;SDS011;2731;50.754;12.990;2022-09-03T16:30:51;2.00;;;1.40;;
5416;SDS011;2731;50.754;12.990;2022-09-03T16:33:42;2.90;;;1.63;;
5416;SDS011;2731;50.754;12.990;2022-09-03T16:39:11;20.70;;;12.68;;
5416;SDS011;2731;50.754;12.990;2022-09-03T16:42:00;19.92;;;12.30;;
5416;SDS011;2731;50.754;12.990;2022-09-03T16:44:57;17.05;;;9.95;;
5416;SDS011;2731;50.754;12.990;2022-09-03T16:59:17;9.63;;;5.05;;
5416;SDS011;2731;50.754;12.990;2022-09-03T17:14:18;4.53;;;2.60;;
5416;SDS011;2731;50.754;12.990;2022-09-03T17:28:08;7.15;;;2.92;;
5416;SDS011;2731;50.754;12.990;2022-09-03T17:31:01;6.60;;;2.15;;
5416;SDS011;2731;50.754;12.990;2022-09-03T17:36:29;4.90;;;2.13;;
5416;SDS011;2731;50.754;12.990;2022-09-03T17:42:14;3.67;;;2.00;;
5416;SDS011;2731;50.754;12.990;2022-09-03T17:45:24;2.83;;;1.63;;
5416;SDS011;2731;50.754;12.990;2022-09-03T17:54:40;3.85;;;1.63;;
5416;SDS011;2731;50.754;12.990;2022-09-03T17:57:24;2.58;;;1.40;;
5416;SDS011;2731;50.754;12.990;2022-09-03T18:00:05;2.67;;;1.73;;
5416;SDS011;2731;50.754;12.990;2022-09-03T18:02:49;3.95;;;1.67;;
5416;SDS011;2731;50.754;12.990;2022-09-03T18:11:10;2.75;;;1.73;;
5416;SDS011;2731;50.754;12.990;2022-09-03T18:22:21;1.90;;;1.45;;
5416;SDS011;2731;50.754;12.990;2022-09-03T18:25:32;4.00;;;1.85;;
5416;SDS011;2731;50.754;12.990;2022-09-03T18:28:20;2.28;;;1.48;;
5416;SDS011;2731;50.754;12.990;2022-09-03T18:31:16;2.15;;;1.65;;
5416;SDS011;2731;50.754;12.990;2022-09-03T18:34:03;4.00;;;1.45;;
5416;SDS011;2731;50.754;12.990;2022-09-03T18:36:48;4.95;;;1.88;;
5416;SDS011;2731;50.754;12.990;2022-09-03T18:39:34;5.03;;;2.78;;
5416;SDS011;2731;50.754;12.990;2022-09-03T18:42:43;4.40;;;3.15;;
5416;SDS011;2731;50.754;12.990;2022-09-03T18:45:57;6.28;;;4.07;;
5416;SDS011;2731;50.754;12.990;2022-09-03T18:52:17;12.40;;;6.40;;
5416;SDS011;2731;50.754;12.990;2022-09-03T18:55:13;7.88;;;5.47;;
5416;SDS011;2731;50.754;12.990;2022-09-03T19:01:26;4.65;;;3.10;;
5416;SDS011;2731;50.754;12.990;2022-09-03T19:07:35;3.28;;;2.45;;
5416;SDS011;2731;50.754;12.990;2022-09-03T19:13:55;5.50;;;3.92;;
5416;SDS011;2731;50.754;12.990;2022-09-03T19:17:05;6.50;;;4.03;;
5416;SDS011;2731;50.754;12.990;2022-09-03T19:23:19;4.50;;;2.65;;
5416;SDS011;2731;50.754;12.990;2022-09-03T19:26:39;4.57;;;2.58;;
5416;SDS011;2731;50.754;12.990;2022-09-03T19:29:34;3.83;;;2.90;;
5416;SDS011;2731;50.754;12.990;2022-09-03T19:32:43;4.05;;;2.90;;
5416;SDS011;2731;50.754;12.990;2022-09-03T19:36:21;4.35;;;2.63;;
5416;SDS011;2731;50.754;12.990;2022-09-03T19:41:56;3.00;;;2.35;;
5416;SDS011;2731;50.754;12.990;2022-09-03T19:47:59;3.15;;;2.28;;
5416;SDS011;2731;50.754;12.990;2022-09-03T19:51:03;1.88;;;1.73;;
5416;SDS011;2731;50.754;12.990;2022-09-03T19:54:00;4.18;;;2.30;;
5416;SDS011;2731;50.754;12.990;2022-09-03T19:56:50;3.45;;;2.42;;
5416;SDS011;2731;50.754;12.990;2022-09-03T19:59:37;3.67;;;2.05;;
5416;SDS011;2731;50.754;12.990;2022-09-03T20:02:24;3.78;;;2.00;;
5416;SDS011;2731;50.754;12.990;2022-09-03T20:05:18;3.53;;;1.92;;
5416;SDS011;2731;50.754;12.990;2022-09-03T20:08:04;3.40;;;1.88;;
5416;SDS011;2731;50.754;12.990;2022-09-03T20:10:52;2.65;;;1.85;;
5416;SDS011;2731;50.754;12.990;2022-09-03T20:13:22;4.20;;;2.20;;
5416;SDS011;2731;50.754;12.990;2022-09-03T20:15:50;6.00;;;2.35;;
5416;SDS011;2731;50.754;12.990;2022-09-03T20:21:18;4.63;;;3.25;;
5416;SDS011;2731;50.754;12.990;2022-09-03T20:41:30;6.43;;;2.72;;
5416;SDS011;2731;50.754;12.990;2022-09-03T20:46:53;3.38;;;2.20;;
5416;SDS011;2731;50.754;12.990;2022-09-03T20:55:32;4.03;;;1.90;;
5416;SDS011;2731;50.754;12.990;2022-09-03T21:01:09;3.05;;;2.08;;
5416;SDS011;2731;50.754;12.990;2022-09-03T21:06:37;4.13;;;2.67;;
5416;SDS011;2731;50.754;12.990;2022-09-03T21:14:49;4.22;;;2.63;;
5416;SDS011;2731;50.754;12.990;2022-09-03T21:26:00;5.72;;;2.78;;
5416;SDS011;2731;50.754;12.990;2022-09-03T21:28:38;3.17;;;2.22;;
5416;SDS011;2731;50.754;12.990;2022-09-03T21:33:54;4.55;;;2.72;;
5416;SDS011;2731;50.754;12.990;2022-09-03T21:36:34;3.47;;;2.50;;
5416;SDS011;2731;50.754;12.990;2022-09-03T21:39:20;3.35;;;2.65;;
5416;SDS011;2731;50.754;12.990;2022-09-03T21:42:15;5.97;;;2.22;;
5416;SDS011;2731;50.754;12.990;2022-09-03T21:47:38;3.90;;;2.60;;
5416;SDS011;2731;50.754;12.990;2022-09-03T21:50:14;4.13;;;2.55;;
5416;SDS011;2731;50.754;12.990;2022-09-03T21:53:06;4.10;;;1.95;;
5416;SDS011;2731;50.754;12.990;2022-09-03T21:58:38;2.75;;;1.92;;
5416;SDS011;2731;50.754;12.990;2022-09-03T22:01:31;5.47;;;2.83;;
5416;SDS011;2731;50.754;12.990;2022-09-03T22:04:00;3.15;;;2.38;;
5416;SDS011;2731;50.754;12.990;2022-09-03T22:09:57;3.38;;;2.30;;
5416;SDS011;2731;50.754;12.990;2022-09-03T22:12:31;4.18;;;2.47;;
5416;SDS011;2731;50.754;12.990;2022-09-03T22:15:03;4.38;;;2.88;;